Airfield :
LOGIN :

Register | Disclaimer

   EN    FR    IT 

 










Legend :    VFR   Marginal VFR   IFR   Intensive IFR   Very Intensive IFR
Visi :
Ceiling :
>= 8 km
>= 3000ft
5 to 8 km
1000 to 3000 ft
1500m to 5 km
500 to 1000 ft
800 to 1500m
200 to 500 ft
< 800m
< 200 ft
Symbols :   Thunderstorms  Fog  Heavy snow  Heavy precipitations  Wind > 20 kt
SIGMETs :     Misc.  Thunderstorms  Icing  Turbulence  Mountain Waves  Volcanic Ashes






- Airport Elevation : 80 ft
- IATA code : LPL


EGGP - Liverpool John Lennon

CURRENT METAR :
  • 090620Z 24012KT 9999 FEW019 BKN025 07/05 Q0999

EXPIRED METARs :
  • 090550Z 27013KT 9999 FEW018 SCT028 06/04 Q0998
  • 090520Z AUTO 27013KT 9999 SCT016/// BKN022/// 06/04 Q0998
  • 090450Z AUTO 27018KT 9999 FEW014/// SCT020/// BKN025/// 07/05 Q0998
  • 090420Z AUTO 27020KT 9999 BKN013/// OVC018/// 07/06 Q0998 RERA
  • 090350Z AUTO 27016KT 3600 RA FEW007/// BKN010/// BKN014/// 07/06 Q0997 RERA

TAF TAF EGGP
Valid from the 09 at 06:00 until the 10 at 06:00 UTC


090454Z 0906/1006 27012KT 9999 SCT014
PROB30
TEMPO 0906/0909 27015G25KT 6000 RA SHRA BKN012
BECMG 0909/0912 21007KT
BECMG 0912/0915 15010KT
TEMPO 0915/0920 6000 RA BKN010
PROB30
TEMPO 0916/0919 3000 +RA BKN008
BECMG 0918/0921 29014KT
TEMPO 0920/1006 30017G27KT 6000 SHRA
PROB30
TEMPO 0920/1006 3000 +SHRA BKN014 BKN025CB
ATIS : +44 151 907 2000 (option 5 or ext 5150)
Met : +44 871 750 5150



MET'MAP, your aeronautical weather chart ! - Copyright ORBIFLY December 2007 - Disclaimer

ORBIFLY MET'MAP TEAM :

Programming & Development : Alexandra Zaïnal
Concept & original design : Baudouin d'Aumeries
Assistance for programming : Marc-Olivier Méhu
Technical & hardware support : Manuel Goepfert

Contact : metmap@orbifly.com




SOURCES & CREDITS :

   NOAA